sensor_id;sensor_type;location;lat;lon;timestamp;pressure;altitude;pressure_sealevel;temperature;humidity
38225;BME280;24025;48.138;11.428;2023-02-28T00:00:22;95935.75;;;-1.99;65.94
38225;BME280;24025;48.138;11.428;2023-02-28T00:02:53;95938.09;;;-1.97;65.51
38225;BME280;24025;48.138;11.428;2023-02-28T00:05:25;95934.97;;;-2.00;66.22
38225;BME280;24025;48.138;11.428;2023-02-28T00:07:55;95938.66;;;-2.01;66.06
38225;BME280;24025;48.138;11.428;2023-02-28T00:10:28;95934.97;;;-2.00;66.19
38225;BME280;24025;48.138;11.428;2023-02-28T00:13:01;95935.56;;;-2.13;66.90
38225;BME280;24025;48.138;11.428;2023-02-28T00:15:32;95928.53;;;-2.12;67.15
38225;BME280;24025;48.138;11.428;2023-02-28T00:18:03;95929.56;;;-2.08;66.85
38225;BME280;24025;48.138;11.428;2023-02-28T00:20:33;95926.66;;;-2.07;67.01
38225;BME280;24025;48.138;11.428;2023-02-28T00:23:04;95930.84;;;-2.06;67.09
38225;BME280;24025;48.138;11.428;2023-02-28T00:25:34;95934.00;;;-2.09;66.97
38225;BME280;24025;48.138;11.428;2023-02-28T00:28:04;95926.19;;;-2.14;66.97
38225;BME280;24025;48.138;11.428;2023-02-28T00:30:35;95928.00;;;-2.09;67.01
38225;BME280;24025;48.138;11.428;2023-02-28T00:33:06;95934.84;;;-2.18;66.77
38225;BME280;24025;48.138;11.428;2023-02-28T00:35:36;95928.78;;;-2.14;66.93
38225;BME280;24025;48.138;11.428;2023-02-28T00:38:06;95923.56;;;-2.14;66.96
38225;BME280;24025;48.138;11.428;2023-02-28T00:40:37;95924.91;;;-2.16;66.73
38225;BME280;24025;48.138;11.428;2023-02-28T00:43:07;95925.19;;;-2.18;67.68
38225;BME280;24025;48.138;11.428;2023-02-28T00:45:38;95925.75;;;-2.26;67.86
38225;BME280;24025;48.138;11.428;2023-02-28T00:48:08;95927.00;;;-2.18;67.78
38225;BME280;24025;48.138;11.428;2023-02-28T00:50:38;95918.41;;;-2.19;67.39
38225;BME280;24025;48.138;11.428;2023-02-28T00:53:09;95924.69;;;-2.20;67.50
38225;BME280;24025;48.138;11.428;2023-02-28T00:55:39;95925.97;;;-2.17;67.91
38225;BME280;24025;48.138;11.428;2023-02-28T00:58:09;95930.47;;;-2.33;67.17
38225;BME280;24025;48.138;11.428;2023-02-28T01:00:42;95924.47;;;-2.29;67.10
38225;BME280;24025;48.138;11.428;2023-02-28T01:03:12;95927.84;;;-2.28;67.45
38225;BME280;24025;48.138;11.428;2023-02-28T01:05:42;95914.53;;;-2.26;68.09
38225;BME280;24025;48.138;11.428;2023-02-28T01:08:14;95918.69;;;-2.25;68.18
38225;BME280;24025;48.138;11.428;2023-02-28T01:10:45;95915.09;;;-2.40;67.71
38225;BME280;24025;48.138;11.428;2023-02-28T01:13:15;95920.59;;;-2.36;67.87
38225;BME280;24025;48.138;11.428;2023-02-28T01:15:51;95912.78;;;-2.41;68.17
38225;BME280;24025;48.138;11.428;2023-02-28T01:18:22;95914.09;;;-2.44;68.52
38225;BME280;24025;48.138;11.428;2023-02-28T01:20:52;95908.06;;;-2.39;68.90
38225;BME280;24025;48.138;11.428;2023-02-28T01:23:23;95902.81;;;-2.34;68.60
38225;BME280;24025;48.138;11.428;2023-02-28T01:25:54;95909.66;;;-2.43;68.51
38225;BME280;24025;48.138;11.428;2023-02-28T01:28:25;95907.31;;;-2.45;67.97
38225;BME280;24025;48.138;11.428;2023-02-28T01:30:55;95900.50;;;-2.41;68.58
38225;BME280;24025;48.138;11.428;2023-02-28T01:33:26;95906.00;;;-2.42;68.51
38225;BME280;24025;48.138;11.428;2023-02-28T01:36:00;95900.00;;;-2.43;68.95
38225;BME280;24025;48.138;11.428;2023-02-28T01:38:30;95890.81;;;-2.40;69.18
38225;BME280;24025;48.138;11.428;2023-02-28T01:41:03;95899.72;;;-2.41;68.45
38225;BME280;24025;48.138;11.428;2023-02-28T01:46:14;95902.59;;;-2.43;68.64
38225;BME280;24025;48.138;11.428;2023-02-28T01:49:09;95897.38;;;-2.43;68.85
38225;BME280;24025;48.138;11.428;2023-02-28T01:51:41;95892.66;;;-2.41;68.60
38225;BME280;24025;48.138;11.428;2023-02-28T01:54:24;95890.31;;;-2.42;68.62
38225;BME280;24025;48.138;11.428;2023-02-28T01:57:05;95893.75;;;-2.47;68.33
38225;BME280;24025;48.138;11.428;2023-02-28T01:59:40;95895.56;;;-2.42;68.88
38225;BME280;24025;48.138;11.428;2023-02-28T02:02:20;95891.88;;;-2.41;68.41
38225;BME280;24025;48.138;11.428;2023-02-28T02:04:56;95886.13;;;-2.38;68.21
38225;BME280;24025;48.138;11.428;2023-02-28T02:07:35;95883.53;;;-2.43;69.03
38225;BME280;24025;48.138;11.428;2023-02-28T02:10:12;95880.44;;;-2.45;68.46
38225;BME280;24025;48.138;11.428;2023-02-28T02:22:11;95882.50;;;-2.47;69.18
38225;BME280;24025;48.138;11.428;2023-02-28T02:27:59;95875.50;;;-2.52;68.98
38225;BME280;24025;48.138;11.428;2023-02-28T02:39:06;95863.81;;;-2.60;69.88
38225;BME280;24025;48.138;11.428;2023-02-28T02:44:25;95863.59;;;-2.68;69.86
38225;BME280;24025;48.138;11.428;2023-02-28T02:47:08;95860.25;;;-2.74;70.42
38225;BME280;24025;48.138;11.428;2023-02-28T02:49:44;95856.81;;;-2.74;69.99
38225;BME280;24025;48.138;11.428;2023-02-28T02:52:18;95857.09;;;-2.76;71.25
38225;BME280;24025;48.138;11.428;2023-02-28T02:54:52;95866.75;;;-2.71;70.79
38225;BME280;24025;48.138;11.428;2023-02-28T02:57:35;95862.53;;;-2.67;70.73
38225;BME280;24025;48.138;11.428;2023-02-28T03:00:08;95862.81;;;-2.69;70.50
38225;BME280;24025;48.138;11.428;2023-02-28T03:02:40;95859.16;;;-2.68;70.85
38225;BME280;24025;48.138;11.428;2023-02-28T03:05:31;95851.88;;;-2.71;70.28
38225;BME280;24025;48.138;11.428;2023-02-28T03:08:04;95855.53;;;-2.77;71.67
38225;BME280;24025;48.138;11.428;2023-02-28T03:10:43;95861.31;;;-2.80;71.03
38225;BME280;24025;48.138;11.428;2023-02-28T03:24:55;95874.63;;;-2.81;71.93
38225;BME280;24025;48.138;11.428;2023-02-28T03:30:10;95868.63;;;-2.82;72.00
38225;BME280;24025;48.138;11.428;2023-02-28T03:32:55;95872.31;;;-2.93;71.70
38225;BME280;24025;48.138;11.428;2023-02-28T03:35:33;95872.03;;;-2.92;72.38
38225;BME280;24025;48.138;11.428;2023-02-28T03:38:16;95880.63;;;-2.86;72.21
38225;BME280;24025;48.138;11.428;2023-02-28T03:40:54;95867.31;;;-2.85;72.21
38225;BME280;24025;48.138;11.428;2023-02-28T03:43:29;95872.53;;;-2.85;72.11
38225;BME280;24025;48.138;11.428;2023-02-28T03:46:03;95871.75;;;-2.85;72.25
38225;BME280;24025;48.138;11.428;2023-02-28T03:48:45;95868.09;;;-2.79;72.51
38225;BME280;24025;48.138;11.428;2023-02-28T03:51:21;95867.56;;;-2.81;72.27
38225;BME280;24025;48.138;11.428;2023-02-28T03:53:57;95873.03;;;-2.77;72.00
38225;BME280;24025;48.138;11.428;2023-02-28T03:56:39;95874.31;;;-2.75;72.51
38225;BME280;24025;48.138;11.428;2023-02-28T03:59:22;95883.91;;;-2.65;72.54
38225;BME280;24025;48.138;11.428;2023-02-28T04:01:57;95892.56;;;-2.65;71.26
38225;BME280;24025;48.138;11.428;2023-02-28T04:04:28;95881.84;;;-2.68;71.77
38225;BME280;24025;48.138;11.428;2023-02-28T04:07:05;95886.53;;;-2.65;71.89
38225;BME280;24025;48.138;11.428;2023-02-28T04:09:36;95888.06;;;-2.59;71.59
38225;BME280;24025;48.138;11.428;2023-02-28T04:12:06;95902.69;;;-2.58;71.01
38225;BME280;24025;48.138;11.428;2023-02-28T04:14:37;95907.88;;;-2.53;71.41
38225;BME280;24025;48.138;11.428;2023-02-28T04:17:07;95911.22;;;-2.47;71.09
38225;BME280;24025;48.138;11.428;2023-02-28T04:19:39;95914.09;;;-2.44;71.07
38225;BME280;24025;48.138;11.428;2023-02-28T04:22:09;95920.59;;;-2.36;71.20
38225;BME280;24025;48.138;11.428;2023-02-28T04:24:40;95911.41;;;-2.29;70.79
38225;BME280;24025;48.138;11.428;2023-02-28T04:27:11;95917.63;;;-2.24;71.05
38225;BME280;24025;48.138;11.428;2023-02-28T04:29:41;95913.94;;;-2.18;71.23
38225;BME280;24025;48.138;11.428;2023-02-28T04:32:14;95907.13;;;-2.14;70.84
38225;BME280;24025;48.138;11.428;2023-02-28T04:34:44;95915.22;;;-2.16;70.77
38225;BME280;24025;48.138;11.428;2023-02-28T04:37:15;95911.03;;;-2.12;71.10
38225;BME280;24025;48.138;11.428;2023-02-28T04:39:45;95909.22;;;-2.11;71.04
38225;BME280;24025;48.138;11.428;2023-02-28T04:42:16;95911.78;;;-2.06;71.10
38225;BME280;24025;48.138;11.428;2023-02-28T04:44:46;95912.28;;;-2.04;70.76
38225;BME280;24025;48.138;11.428;2023-02-28T04:47:17;95916.97;;;-2.01;70.92
38225;BME280;24025;48.138;11.428;2023-02-28T04:49:47;95913.81;;;-1.98;70.55
38225;BME280;24025;48.138;11.428;2023-02-28T04:52:18;95921.38;;;-1.96;70.74
38225;BME280;24025;48.138;11.428;2023-02-28T04:54:48;95917.47;;;-1.99;70.33
38225;BME280;24025;48.138;11.428;2023-02-28T04:57:19;95923.97;;;-1.96;71.29
38225;BME280;24025;48.138;11.428;2023-02-28T04:59:50;95920.06;;;-1.94;71.16
38225;BME280;24025;48.138;11.428;2023-02-28T05:02:20;95919.78;;;-1.92;71.22
38225;BME280;24025;48.138;11.428;2023-02-28T05:04:51;95927.06;;;-1.89;70.91
38225;BME280;24025;48.138;11.428;2023-02-28T05:07:21;95932.00;;;-1.88;70.61
38225;BME280;24025;48.138;11.428;2023-02-28T05:09:52;95925.28;;;-1.94;70.81
38225;BME280;24025;48.138;11.428;2023-02-28T05:12:23;95929.47;;;-1.93;70.82
38225;BME280;24025;48.138;11.428;2023-02-28T05:14:53;95927.84;;;-1.89;71.16
38225;BME280;24025;48.138;11.428;2023-02-28T05:17:23;95928.88;;;-1.85;71.84
38225;BME280;24025;48.138;11.428;2023-02-28T05:19:54;95929.66;;;-1.84;71.39
38225;BME280;24025;48.138;11.428;2023-02-28T05:22:25;95931.78;;;-1.91;71.17
38225;BME280;24025;48.138;11.428;2023-02-28T05:24:55;95933.84;;;-1.88;71.55
38225;BME280;24025;48.138;11.428;2023-02-28T05:27:25;95930.25;;;-1.92;71.59
38225;BME280;24025;48.138;11.428;2023-02-28T05:29:58;95927.56;;;-1.87;72.06
38225;BME280;24025;48.138;11.428;2023-02-28T05:32:29;95936.75;;;-1.90;71.87
38225;BME280;24025;48.138;11.428;2023-02-28T05:34:59;95937.78;;;-1.91;72.10
38225;BME280;24025;48.138;11.428;2023-02-28T05:37:29;95932.31;;;-1.94;71.48
38225;BME280;24025;48.138;11.428;2023-02-28T05:40:00;95931.88;;;-2.02;72.06
38225;BME280;24025;48.138;11.428;2023-02-28T05:42:31;95940.69;;;-1.92;72.68
38225;BME280;24025;48.138;11.428;2023-02-28T05:45:02;95935.69;;;-1.89;71.76
38225;BME280;24025;48.138;11.428;2023-02-28T05:47:33;95932.53;;;-1.86;71.71
38225;BME280;24025;48.138;11.428;2023-02-28T05:50:05;95937.53;;;-1.94;72.02
38225;BME280;24025;48.138;11.428;2023-02-28T05:52:36;95937.53;;;-1.89;72.33
38225;BME280;24025;48.138;11.428;2023-02-28T05:55:07;95932.59;;;-1.96;71.67
38225;BME280;24025;48.138;11.428;2023-02-28T05:57:38;95924.19;;;-1.88;72.14
38225;BME280;24025;48.138;11.428;2023-02-28T06:00:09;95937.78;;;-1.91;71.64
38225;BME280;24025;48.138;11.428;2023-02-28T06:02:40;95941.69;;;-1.88;71.75
38225;BME280;24025;48.138;11.428;2023-02-28T06:05:15;95944.06;;;-1.92;72.11
38225;BME280;24025;48.138;11.428;2023-02-28T06:07:46;95949.59;;;-1.98;70.90
38225;BME280;24025;48.138;11.428;2023-02-28T06:10:16;95951.22;;;-2.03;71.29
38225;BME280;24025;48.138;11.428;2023-02-28T06:12:47;95951.91;;;-1.92;71.30
38225;BME280;24025;48.138;11.428;2023-02-28T06:15:17;95958.94;;;-1.87;70.80
38225;BME280;24025;48.138;11.428;2023-02-28T06:17:48;95951.13;;;-1.92;71.50
38225;BME280;24025;48.138;11.428;2023-02-28T06:20:18;95949.50;;;-1.83;71.40
38225;BME280;24025;48.138;11.428;2023-02-28T06:22:49;95959.25;;;-1.94;70.63
38225;BME280;24025;48.138;11.428;2023-02-28T06:25:20;95951.63;;;-1.90;71.16
38225;BME280;24025;48.138;11.428;2023-02-28T06:27:51;95948.19;;;-1.86;71.14
38225;BME280;24025;48.138;11.428;2023-02-28T06:30:21;95956.09;;;-1.91;70.88
38225;BME280;24025;48.138;11.428;2023-02-28T06:32:56;95957.44;;;-1.98;70.77
38225;BME280;24025;48.138;11.428;2023-02-28T06:35:27;95963.09;;;-1.86;70.31
38225;BME280;24025;48.138;11.428;2023-02-28T06:37:57;95955.59;;;-1.93;70.55
38225;BME280;24025;48.138;11.428;2023-02-28T06:40:28;95974.94;;;-1.94;70.99
38225;BME280;24025;48.138;11.428;2023-02-28T06:42:58;95980.94;;;-1.98;70.93
38225;BME280;24025;48.138;11.428;2023-02-28T06:45:28;95975.97;;;-1.95;70.98
38225;BME280;24025;48.138;11.428;2023-02-28T06:47:59;95983.78;;;-1.95;71.58
38225;BME280;24025;48.138;11.428;2023-02-28T06:50:30;95988.50;;;-1.92;70.37
38225;BME280;24025;48.138;11.428;2023-02-28T06:53:02;95994.03;;;-1.98;71.28
38225;BME280;24025;48.138;11.428;2023-02-28T06:55:33;95996.84;;;-1.90;70.71
38225;BME280;24025;48.138;11.428;2023-02-28T06:58:03;95992.38;;;-1.84;71.65
38225;BME280;24025;48.138;11.428;2023-02-28T07:00:34;95992.81;;;-1.72;70.94
38225;BME280;24025;48.138;11.428;2023-02-28T07:03:04;95984.19;;;-1.73;70.46
38225;BME280;24025;48.138;11.428;2023-02-28T07:05:37;95992.09;;;-1.83;70.91
38225;BME280;24025;48.138;11.428;2023-02-28T07:08:08;95985.78;;;-1.77;70.20
38225;BME280;24025;48.138;11.428;2023-02-28T07:10:38;95998.00;;;-1.67;70.12
38225;BME280;24025;48.138;11.428;2023-02-28T07:13:09;95995.34;;;-1.62;69.74
38225;BME280;24025;48.138;11.428;2023-02-28T07:15:40;96000.00;;;-1.54;70.60
38225;BME280;24025;48.138;11.428;2023-02-28T07:18:11;96001.03;;;-1.50;69.85
38225;BME280;24025;48.138;11.428;2023-02-28T07:20:41;96003.94;;;-1.56;69.45
38225;BME280;24025;48.138;11.428;2023-02-28T07:23:11;96005.69;;;-1.47;69.63
38225;BME280;24025;48.138;11.428;2023-02-28T07:25:42;96002.25;;;-1.42;69.38
38225;BME280;24025;48.138;11.428;2023-02-28T07:28:13;96006.47;;;-1.46;69.39
38225;BME280;24025;48.138;11.428;2023-02-28T07:30:43;96012.72;;;-1.42;69.01
38225;BME280;24025;48.138;11.428;2023-02-28T07:33:14;96001.56;;;-1.53;68.93
38225;BME280;24025;48.138;11.428;2023-02-28T07:35:44;96005.41;;;-1.45;69.74
38225;BME280;24025;48.138;11.428;2023-02-28T07:38:15;96006.19;;;-1.45;69.20
38225;BME280;24025;48.138;11.428;2023-02-28T07:40:45;95997.53;;;-1.40;69.89
38225;BME280;24025;48.138;11.428;2023-02-28T07:43:16;96001.34;;;-1.27;69.83
38225;BME280;24025;48.138;11.428;2023-02-28T07:45:46;95997.34;;;-1.15;69.52
38225;BME280;24025;48.138;11.428;2023-02-28T07:48:16;96004.09;;;-1.43;68.46
38225;BME280;24025;48.138;11.428;2023-02-28T07:50:54;96005.31;;;-1.30;69.52
38225;BME280;24025;48.138;11.428;2023-02-28T07:53:27;95999.59;;;-1.37;69.17
38225;BME280;24025;48.138;11.428;2023-02-28T07:55:59;96004.75;;;-1.27;69.30
38225;BME280;24025;48.138;11.428;2023-02-28T07:58:31;96005.69;;;-1.12;68.63
38225;BME280;24025;48.138;11.428;2023-02-28T08:01:05;95994.34;;;-1.32;68.20
38225;BME280;24025;48.138;11.428;2023-02-28T08:03:36;95995.84;;;-1.26;68.37
38225;BME280;24025;48.138;11.428;2023-02-28T08:06:14;96004.72;;;-1.22;68.55
38225;BME280;24025;48.138;11.428;2023-02-28T08:08:45;95999.09;;;-1.10;68.94
38225;BME280;24025;48.138;11.428;2023-02-28T08:11:16;96008.13;;;-0.97;68.28
38225;BME280;24025;48.138;11.428;2023-02-28T08:13:47;96013.50;;;-0.83;68.55
38225;BME280;24025;48.138;11.428;2023-02-28T08:16:20;96010.41;;;-0.86;68.14
38225;BME280;24025;48.138;11.428;2023-02-28T08:18:52;96012.13;;;-0.76;67.63
38225;BME280;24025;48.138;11.428;2023-02-28T08:21:23;96017.81;;;-0.69;66.98
38225;BME280;24025;48.138;11.428;2023-02-28T08:23:53;96031.44;;;-0.72;66.88
38225;BME280;24025;48.138;11.428;2023-02-28T08:26:24;96024.28;;;-0.61;67.48
38225;BME280;24025;48.138;11.428;2023-02-28T08:28:54;96032.19;;;-0.66;67.27
38225;BME280;24025;48.138;11.428;2023-02-28T08:31:25;96031.41;;;-0.67;66.86
38225;BME280;24025;48.138;11.428;2023-02-28T08:33:55;96027.94;;;-0.62;66.80
38225;BME280;24025;48.138;11.428;2023-02-28T08:36:28;96030.66;;;-0.72;66.98
38225;BME280;24025;48.138;11.428;2023-02-28T08:38:59;96031.81;;;-0.78;66.92
38225;BME280;24025;48.138;11.428;2023-02-28T08:41:29;96037.16;;;-0.65;67.21
38225;BME280;24025;48.138;11.428;2023-02-28T08:44:00;96043.63;;;-0.57;66.63
38225;BME280;24025;48.138;11.428;2023-02-28T08:46:31;96038.00;;;-0.69;66.52
38225;BME280;24025;48.138;11.428;2023-02-28T08:49:02;96046.81;;;-0.60;66.63
38225;BME280;24025;48.138;11.428;2023-02-28T08:51:32;96047.19;;;-0.48;66.45
38225;BME280;24025;48.138;11.428;2023-02-28T08:54:03;96045.50;;;-0.39;66.00
38225;BME280;24025;48.138;11.428;2023-02-28T08:56:33;96045.97;;;-0.32;66.41
38225;BME280;24025;48.138;11.428;2023-02-28T08:59:04;96047.19;;;-0.24;65.75
38225;BME280;24025;48.138;11.428;2023-02-28T09:01:34;96041.53;;;-0.12;65.21
38225;BME280;24025;48.138;11.428;2023-02-28T09:04:06;96053.75;;;-0.03;64.75
38225;BME280;24025;48.138;11.428;2023-02-28T09:06:38;96048.97;;;-0.19;64.62
38225;BME280;24025;48.138;11.428;2023-02-28T09:09:09;96056.84;;;-0.01;64.91
38225;BME280;24025;48.138;11.428;2023-02-28T09:11:39;96053.56;;;0.13;64.66
38225;BME280;24025;48.138;11.428;2023-02-28T09:14:10;96051.38;;;0.20;64.72
38225;BME280;24025;48.138;11.428;2023-02-28T09:16:41;96057.81;;;0.27;64.08
38225;BME280;24025;48.138;11.428;2023-02-28T09:19:14;96051.28;;;0.25;63.74
38225;BME280;24025;48.138;11.428;2023-02-28T09:21:45;96052.19;;;0.34;63.51
38225;BME280;24025;48.138;11.428;2023-02-28T09:24:15;96062.16;;;0.18;63.02
38225;BME280;24025;48.138;11.428;2023-02-28T09:26:46;96063.22;;;0.36;63.56
38225;BME280;24025;48.138;11.428;2023-02-28T09:29:16;96067.88;;;0.39;63.21
38225;BME280;24025;48.138;11.428;2023-02-28T09:31:47;96062.97;;;0.51;63.67
38225;BME280;24025;48.138;11.428;2023-02-28T09:34:18;96069.22;;;0.55;62.73
38225;BME280;24025;48.138;11.428;2023-02-28T09:36:48;96069.38;;;0.64;62.66
38225;BME280;24025;48.138;11.428;2023-02-28T09:39:24;96073.06;;;0.63;62.13
38225;BME280;24025;48.138;11.428;2023-02-28T09:41:56;96075.03;;;0.71;62.42
38225;BME280;24025;48.138;11.428;2023-02-28T09:44:40;96075.75;;;0.58;62.43
38225;BME280;24025;48.138;11.428;2023-02-28T09:49:45;96094.56;;;0.46;63.12
38225;BME280;24025;48.138;11.428;2023-02-28T09:52:19;96094.91;;;0.59;62.65
38225;BME280;24025;48.138;11.428;2023-02-28T09:54:50;96100.63;;;0.61;61.87
38225;BME280;24025;48.138;11.428;2023-02-28T10:05:30;96096.22;;;0.94;61.23
38225;BME280;24025;48.138;11.428;2023-02-28T10:08:28;96100.34;;;0.81;61.44
38225;BME280;24025;48.138;11.428;2023-02-28T10:11:03;96099.56;;;0.99;60.80
38225;BME280;24025;48.138;11.428;2023-02-28T10:16:12;96097.09;;;1.22;60.03
38225;BME280;24025;48.138;11.428;2023-02-28T10:18:49;96104.22;;;1.35;59.68
38225;BME280;24025;48.138;11.428;2023-02-28T10:21:27;96087.00;;;1.29;59.11
38225;BME280;24025;48.138;11.428;2023-02-28T10:24:10;96099.16;;;1.38;60.29
38225;BME280;24025;48.138;11.428;2023-02-28T10:26:47;96101.13;;;1.33;59.48
38225;BME280;24025;48.138;11.428;2023-02-28T10:29:19;96105.91;;;1.45;59.59
38225;BME280;24025;48.138;11.428;2023-02-28T10:31:50;96112.16;;;1.62;59.67
38225;BME280;24025;48.138;11.428;2023-02-28T10:34:20;96108.88;;;1.70;59.11
38225;BME280;24025;48.138;11.428;2023-02-28T10:36:51;96113.13;;;1.66;59.32
38225;BME280;24025;48.138;11.428;2023-02-28T10:39:37;96112.56;;;1.69;58.90
38225;BME280;24025;48.138;11.428;2023-02-28T10:42:24;96113.53;;;1.60;59.30
38225;BME280;24025;48.138;11.428;2023-02-28T10:47:57;96121.72;;;1.72;57.73
38225;BME280;24025;48.138;11.428;2023-02-28T10:58:58;96122.84;;;1.52;59.33
38225;BME280;24025;48.138;11.428;2023-02-28T11:01:45;96122.31;;;1.83;58.53
38225;BME280;24025;48.138;11.428;2023-02-28T11:07:00;96124.34;;;2.27;58.09
38225;BME280;24025;48.138;11.428;2023-02-28T11:09:39;96122.19;;;2.43;57.51
38225;BME280;24025;48.138;11.428;2023-02-28T11:12:21;96131.56;;;2.85;56.25
38225;BME280;24025;48.138;11.428;2023-02-28T11:14:59;96126.06;;;2.95;54.95
38225;BME280;24025;48.138;11.428;2023-02-28T11:17:32;96123.91;;;2.75;54.50
38225;BME280;24025;48.138;11.428;2023-02-28T11:20:05;96127.06;;;2.49;55.19
38225;BME280;24025;48.138;11.428;2023-02-28T11:22:39;96123.63;;;2.63;55.50
38225;BME280;24025;48.138;11.428;2023-02-28T11:27:56;96125.81;;;2.83;54.53
38225;BME280;24025;48.138;11.428;2023-02-28T11:33:30;96113.06;;;3.44;53.47
38225;BME280;24025;48.138;11.428;2023-02-28T11:36:10;96121.06;;;3.61;53.02
38225;BME280;24025;48.138;11.428;2023-02-28T11:38:42;96108.50;;;3.89;53.13
38225;BME280;24025;48.138;11.428;2023-02-28T11:47:32;96096.56;;;4.74;51.12
38225;BME280;24025;48.138;11.428;2023-02-28T11:52:56;96090.34;;;5.14;50.93
38225;BME280;24025;48.138;11.428;2023-02-28T11:55:53;96091.97;;;5.53;48.69
38225;BME280;24025;48.138;11.428;2023-02-28T12:01:32;96093.63;;;5.75;48.86
38225;BME280;24025;48.138;11.428;2023-02-28T12:06:57;96075.78;;;6.10;48.40
38225;BME280;24025;48.138;11.428;2023-02-28T12:18:42;96081.84;;;5.55;47.54
38225;BME280;24025;48.138;11.428;2023-02-28T12:27:20;96062.75;;;5.87;47.97
38225;BME280;24025;48.138;11.428;2023-02-28T12:30:01;96064.66;;;5.40;48.83
38225;BME280;24025;48.138;11.428;2023-02-28T12:32:42;96050.19;;;5.84;47.77
38225;BME280;24025;48.138;11.428;2023-02-28T12:35:19;96054.69;;;5.84;48.78
38225;BME280;24025;48.138;11.428;2023-02-28T12:38:05;96050.69;;;6.07;48.33
38225;BME280;24025;48.138;11.428;2023-02-28T12:40:44;96041.97;;;6.36;46.76
38225;BME280;24025;48.138;11.428;2023-02-28T12:43:17;96040.03;;;6.66;45.98
38225;BME280;24025;48.138;11.428;2023-02-28T12:45:55;96043.91;;;6.90;45.96
38225;BME280;24025;48.138;11.428;2023-02-28T12:48:31;96035.22;;;7.01;44.60
38225;BME280;24025;48.138;11.428;2023-02-28T12:51:08;96037.28;;;7.17;44.73
38225;BME280;24025;48.138;11.428;2023-02-28T12:54:09;96040.81;;;7.78;43.87
38225;BME280;24025;48.138;11.428;2023-02-28T12:56:43;96041.38;;;9.73;40.22
38225;BME280;24025;48.138;11.428;2023-02-28T12:59:29;96028.75;;;10.71;36.41
38225;BME280;24025;48.138;11.428;2023-02-28T13:10:58;96026.47;;;15.22;29.98
38225;BME280;24025;48.138;11.428;2023-02-28T13:13:30;96034.03;;;14.26;30.69
38225;BME280;24025;48.138;11.428;2023-02-28T13:18:38;96021.66;;;14.69;29.93
38225;BME280;24025;48.138;11.428;2023-02-28T13:21:29;96025.78;;;14.56;28.65
38225;BME280;24025;48.138;11.428;2023-02-28T13:24:02;96030.38;;;13.53;30.46
38225;BME280;24025;48.138;11.428;2023-02-28T13:39:54;96037.66;;;11.60;33.47
38225;BME280;24025;48.138;11.428;2023-02-28T13:47:40;96045.34;;;8.51;39.42
38225;BME280;24025;48.138;11.428;2023-02-28T13:59:00;96040.38;;;9.05;39.08
38225;BME280;24025;48.138;11.428;2023-02-28T14:01:55;96026.56;;;9.00;39.77
38225;BME280;24025;48.138;11.428;2023-02-28T14:04:51;96043.88;;;8.66;41.05
38225;BME280;24025;48.138;11.428;2023-02-28T14:07:30;96046.78;;;8.12;40.73
38225;BME280;24025;48.138;11.428;2023-02-28T14:10:06;96041.59;;;7.91;41.43
38225;BME280;24025;48.138;11.428;2023-02-28T14:13:02;96038.88;;;7.42;42.84
38225;BME280;24025;48.138;11.428;2023-02-28T14:18:14;96045.47;;;6.91;43.97
38225;BME280;24025;48.138;11.428;2023-02-28T14:20:47;96043.84;;;6.77;43.85
38225;BME280;24025;48.138;11.428;2023-02-28T14:32:03;96041.38;;;6.10;45.91
38225;BME280;24025;48.138;11.428;2023-02-28T14:34:53;96042.91;;;6.11;46.57
38225;BME280;24025;48.138;11.428;2023-02-28T14:37:33;96040.38;;;6.14;46.83
38225;BME280;24025;48.138;11.428;2023-02-28T14:40:11;96045.63;;;6.23;46.57
38225;BME280;24025;48.138;11.428;2023-02-28T14:42:47;96043.72;;;6.03;45.38
38225;BME280;24025;48.138;11.428;2023-02-28T14:45:22;96043.59;;;6.29;45.85
38225;BME280;24025;48.138;11.428;2023-02-28T14:47:52;96042.03;;;6.48;45.68
38225;BME280;24025;48.138;11.428;2023-02-28T14:50:28;96040.94;;;6.49;45.56
38225;BME280;24025;48.138;11.428;2023-02-28T14:53:01;96038.94;;;6.46;45.63
38225;BME280;24025;48.138;11.428;2023-02-28T14:55:35;96048.38;;;6.56;45.83
38225;BME280;24025;48.138;11.428;2023-02-28T14:58:19;96038.03;;;6.42;44.75
38225;BME280;24025;48.138;11.428;2023-02-28T15:00:54;96036.47;;;6.20;45.39
38225;BME280;24025;48.138;11.428;2023-02-28T15:03:32;96031.91;;;6.30;45.98
38225;BME280;24025;48.138;11.428;2023-02-28T15:06:13;96031.44;;;6.28;45.58
38225;BME280;24025;48.138;11.428;2023-02-28T15:08:44;96034.72;;;6.24;45.84
38225;BME280;24025;48.138;11.428;2023-02-28T15:11:19;96035.75;;;6.11;45.50
38225;BME280;24025;48.138;11.428;2023-02-28T15:13:53;96035.59;;;6.08;46.51
38225;BME280;24025;48.138;11.428;2023-02-28T15:16:32;96030.63;;;6.06;45.98
38225;BME280;24025;48.138;11.428;2023-02-28T15:19:08;96034.28;;;5.93;46.49
38225;BME280;24025;48.138;11.428;2023-02-28T15:21:44;96035.41;;;5.83;47.64
38225;BME280;24025;48.138;11.428;2023-02-28T15:26:59;96039.91;;;5.74;47.07
38225;BME280;24025;48.138;11.428;2023-02-28T15:29:37;96042.19;;;5.55;46.72
38225;BME280;24025;48.138;11.428;2023-02-28T15:32:26;96023.88;;;5.79;47.28
38225;BME280;24025;48.138;11.428;2023-02-28T15:34:58;96034.59;;;5.83;47.31
38225;BME280;24025;48.138;11.428;2023-02-28T15:40:17;96042.69;;;5.95;46.66
38225;BME280;24025;48.138;11.428;2023-02-28T15:45:44;96048.75;;;5.95;47.92
38225;BME280;24025;48.138;11.428;2023-02-28T15:48:23;96039.38;;;5.89;47.52
38225;BME280;24025;48.138;11.428;2023-02-28T15:50:57;96053.00;;;5.79;48.05
38225;BME280;24025;48.138;11.428;2023-02-28T15:53:59;96053.69;;;5.59;47.54
38225;BME280;24025;48.138;11.428;2023-02-28T15:56:32;96059.06;;;5.24;48.88
38225;BME280;24025;48.138;11.428;2023-02-28T15:59:05;96057.22;;;5.07;49.67
38225;BME280;24025;48.138;11.428;2023-02-28T16:01:37;96052.09;;;5.02;49.78
38225;BME280;24025;48.138;11.428;2023-02-28T16:04:19;96052.28;;;4.89;50.03
38225;BME280;24025;48.138;11.428;2023-02-28T16:09:28;96063.94;;;4.62;50.71
38225;BME280;24025;48.138;11.428;2023-02-28T16:12:02;96059.44;;;4.53;51.24